Woofie — ZJL9082 — position and weather

sailwx.info

Track history (hours):
 
Tides and Currents Weather Stations Pressure Air Temp Water Temp Dewpoint Dewpoint Depression Visibility Wind Speed Wind Dir Waves Ship Positions

Woofie

Last reported at 2018-Apr-24 15:39 UTC. Time now 2018-Apr-25 14:42 UTC.
Position N 16°38' W 061°48'.

Length 24 m.

Type: Pleasure craft. MMSI: 378112112.

Date/timePositionNaut miles runAvg speedWind from/ knotsBaromVisibWave heightAir tempDewpointWater temp
2018-Apr-24 15:39N 16°38' W 061°48'1 9.9
2018-Apr-24 15:30N 16°39' W 061°48'5 9.8
2018-Apr-24 15:00N 16°44' W 061°48'5 9.9
2018-Apr-24 14:29N 16°49' W 061°47'4 9.3
2018-Apr-24 14:00N 16°54' W 061°47'4 8.5
2018-Apr-24 13:29N 16°58' W 061°47'3 5.1
2018-Apr-24 12:58N 17°01' W 061°47'  
2018-Apr-21 16:49N 17°01' W 061°47'0 0.0
2018-Apr-21 16:28N 17°01' W 061°47'0 0.0
2018-Apr-21 16:00N 17°01' W 061°47'0 0.5
2018-Apr-21 15:29N 17°01' W 061°47'0 0.0
2018-Apr-21 14:59N 17°01' W 061°47'0 0.0
2018-Apr-21 14:29N 17°01' W 061°47'0 0.0
2018-Apr-21 13:59N 17°01' W 061°47'0 0.0
2018-Apr-21 13:30N 17°01' W 061°47'0 0.5
2018-Apr-21 12:58N 17°01' W 061°47'0 0.0
2018-Apr-21 12:27N 17°01' W 061°47'0 0.0
2018-Apr-21 11:58N 17°01' W 061°47'0 0.0
2018-Apr-21 11:28N 17°01' W 061°47'0 0.0
2018-Apr-21 10:58N 17°01' W 061°47'  
Track history (hours):
 
Tides and Currents Weather Stations Pressure Air Temp Water Temp Dewpoint Dewpoint Depression Visibility Wind Speed Wind Dir Waves Ship Positions

Woofie

Last reported at 2018-Apr-24 15:39 UTC. Time now 2018-Apr-25 14:42 UTC.
Position N 16°38' W 061°48'.

Length 24 m.

Type: Pleasure craft. MMSI: 378112112.

Date/timePositionNaut miles runAvg speedWind from/ knotsBaromVisibWave heightAir tempDewpointWater temp
2018-Apr-24 15:39N 16°38' W 061°48'1 9.9
2018-Apr-24 15:30N 16°39' W 061°48'5 9.8
2018-Apr-24 15:00N 16°44' W 061°48'5 9.9
2018-Apr-24 14:29N 16°49' W 061°47'4 9.3
2018-Apr-24 14:00N 16°54' W 061°47'4 8.5
2018-Apr-24 13:29N 16°58' W 061°47'3 5.1
2018-Apr-24 12:58N 17°01' W 061°47'  
2018-Apr-21 16:49N 17°01' W 061°47'0 0.0
2018-Apr-21 16:28N 17°01' W 061°47'0 0.0
2018-Apr-21 16:00N 17°01' W 061°47'0 0.5
2018-Apr-21 15:29N 17°01' W 061°47'0 0.0
2018-Apr-21 14:59N 17°01' W 061°47'0 0.0
2018-Apr-21 14:29N 17°01' W 061°47'0 0.0
2018-Apr-21 13:59N 17°01' W 061°47'0 0.0
2018-Apr-21 13:30N 17°01' W 061°47'0 0.5
2018-Apr-21 12:58N 17°01' W 061°47'0 0.0
2018-Apr-21 12:27N 17°01' W 061°47'0 0.0
2018-Apr-21 11:58N 17°01' W 061°47'0 0.0
2018-Apr-21 11:28N 17°01' W 061°47'0 0.0
2018-Apr-21 10:58N 17°01' W 061°47'  

Dump ship's entire track history